Time;durP1;ratioP1;P1;durP2;ratioP2;P2;SDS_P1;SDS_P2;PMS_P1;PMS_P2;Temp;Humidity;BMP_temperature;BMP_pressure;BME280_temperature;BME280_humidity;BME280_pressure;Samples;Min_cycle;Max_cycle;Signal;HPM_P1;HPM_P2
2023/05/14 00:00:35;;;;;;;30.40;20.77;;;;;;;14.15;100.00;101870.94;4985986;28;20105;-76
2023/05/14 00:03:01;;;;;;;26.77;19.90;;;;;;;14.15;100.00;101870.09;4979411;28;20042;-76
2023/05/14 00:05:29;;;;;;;30.17;21.02;;;;;;;13.96;100.00;101870.38;4973787;28;20035;-77
2023/05/14 00:07:55;;;;;;;30.42;22.13;;;;;;;13.99;100.00;101865.66;4965768;28;20038;-76
2023/05/14 00:10:21;;;;;;;33.95;21.27;;;;;;;13.86;100.00;101862.03;4966248;28;20041;-76
2023/05/14 00:12:47;;;;;;;28.95;21.23;;;;;;;13.88;100.00;101867.28;4960370;28;20150;-77
2023/05/14 00:15:12;;;;;;;30.50;22.85;;;;;;;13.76;100.00;101860.00;4965185;28;20413;-76
2023/05/14 00:17:38;;;;;;;36.55;22.60;;;;;;;13.70;100.00;101864.78;4962821;28;20034;-76
2023/05/14 00:20:06;;;;;;;34.22;23.23;;;;;;;13.54;100.00;101865.75;4956393;28;20460;-77
2023/05/14 00:22:36;;;;;;;30.73;21.63;;;;;;;13.56;100.00;101870.09;4968171;28;20050;-76
2023/05/14 00:25:02;;;;;;;35.58;23.02;;;;;;;13.42;100.00;101876.25;4947630;28;20039;-76
2023/05/14 00:27:28;;;;;;;28.05;21.83;;;;;;;13.28;100.00;101876.19;4971846;28;20062;-76
2023/05/14 00:29:54;;;;;;;31.35;22.80;;;;;;;13.31;100.00;101875.16;4970408;28;20530;-75
2023/05/14 00:32:19;;;;;;;33.47;22.48;;;;;;;13.17;100.00;101862.53;4971565;28;20054;-76
2023/05/14 00:34:48;;;;;;;29.90;22.85;;;;;;;13.23;100.00;101864.03;4960912;28;20043;-76
2023/05/14 00:37:14;;;;;;;32.72;22.85;;;;;;;13.26;100.00;101859.38;4960464;28;20111;-76
2023/05/14 00:39:42;;;;;;;34.45;23.27;;;;;;;13.12;100.00;101854.78;4982021;28;20051;-76
2023/05/14 00:42:08;;;;;;;34.22;23.95;;;;;;;13.01;100.00;101857.22;4962148;28;20106;-75
2023/05/14 00:44:39;;;;;;;36.33;23.98;;;;;;;12.97;100.00;101855.66;4962417;28;20479;-76
2023/05/14 00:47:07;;;;;;;35.15;23.42;;;;;;;13.18;100.00;101850.88;4953208;28;20039;-76
2023/05/14 00:49:38;;;;;;;28.70;22.88;;;;;;;12.90;100.00;101849.78;4971374;28;20044;-76
2023/05/14 00:52:06;;;;;;;31.70;23.23;;;;;;;12.91;100.00;101853.34;4963412;28;20054;-76
2023/05/14 00:54:37;;;;;;;33.65;23.77;;;;;;;12.83;100.00;101851.06;4967551;28;20050;-76
2023/05/14 00:57:05;;;;;;;33.92;24.15;;;;;;;12.86;100.00;101853.59;4962657;28;20081;-76
2023/05/14 00:59:31;;;;;;;30.48;24.83;;;;;;;12.67;100.00;101851.06;4976102;28;20134;-76
2023/05/14 01:01:56;;;;;;;39.25;24.83;;;;;;;12.76;100.00;101848.84;4970310;28;20043;-76
2023/05/14 01:04:22;;;;;;;38.08;23.52;;;;;;;12.79;100.00;101840.63;4980307;28;20393;-77
2023/05/14 01:07:19;;;;;;;32.53;24.20;;;;;;;12.69;100.00;101845.63;4966289;28;20122;-76
2023/05/14 01:10:06;;;;;;;33.28;24.73;;;;;;;12.79;100.00;101844.16;4978046;28;20088;-77
2023/05/14 01:12:50;;;;;;;35.72;26.05;;;;;;;12.52;100.00;101848.41;4980385;28;20027;-76
2023/05/14 01:15:30;;;;;;;40.90;25.67;;;;;;;12.60;100.00;101846.13;4987455;28;20050;-76
2023/05/14 01:18:06;;;;;;;35.03;24.38;;;;;;;12.51;100.00;101838.66;4992990;28;20255;-77
2023/05/14 01:20:36;;;;;;;40.70;25.27;;;;;;;12.64;100.00;101835.19;4983209;28;20086;-77
2023/05/14 01:23:08;;;;;;;38.13;25.27;;;;;;;12.51;100.00;101844.84;4980094;28;20027;-76
2023/05/14 01:25:34;;;;;;;37.70;24.65;;;;;;;12.74;100.00;101838.19;4974359;28;20202;-76
2023/05/14 01:28:19;;;;;;;34.85;25.35;;;;;;;12.72;100.00;101839.25;4995836;28;20428;-76
2023/05/14 01:30:57;;;;;;;36.17;24.00;;;;;;;12.86;100.00;101836.66;4972506;28;20038;-76
2023/05/14 01:33:26;;;;;;;36.67;26.85;;;;;;;12.68;100.00;101835.88;4961255;28;20054;-76
2023/05/14 01:35:53;;;;;;;34.35;24.88;;;;;;;12.63;100.00;101833.47;4979605;28;20066;-76
2023/05/14 01:38:20;;;;;;;36.75;23.92;;;;;;;12.67;100.00;101834.16;4991097;28;20113;-75
2023/05/14 01:40:46;;;;;;;34.20;25.67;;;;;;;13.03;100.00;101824.97;4988000;28;20047;-75
2023/05/14 01:43:15;;;;;;;35.65;26.13;;;;;;;13.11;100.00;101822.72;4955112;28;20082;-76
2023/05/14 01:45:41;;;;;;;36.33;25.58;;;;;;;13.05;100.00;101820.38;4974560;28;20035;-76
2023/05/14 01:48:07;;;;;;;30.25;24.08;;;;;;;12.99;100.00;101821.59;4981453;28;20046;-76
2023/05/14 01:50:33;;;;;;;40.45;26.27;;;;;;;12.91;100.00;101829.25;4969196;28;20037;-76
2023/05/14 01:52:58;;;;;;;41.60;27.42;;;;;;;12.75;100.00;101828.34;4959426;28;20879;-75
2023/05/14 01:55:24;;;;;;;35.42;25.17;;;;;;;12.79;100.00;101821.88;4981408;28;20740;-75
2023/05/14 01:57:51;;;;;;;33.38;24.73;;;;;;;12.60;100.00;101828.31;4981306;28;20037;-75
2023/05/14 02:00:18;;;;;;;40.80;26.27;;;;;;;12.55;100.00;101822.34;4968542;28;20086;-76
2023/05/14 02:02:43;;;;;;;39.08;27.98;;;;;;;12.39;100.00;101827.66;4968910;28;20062;-76
2023/05/14 02:05:11;;;;;;;41.05;27.05;;;;;;;12.25;100.00;101816.88;4971013;28;20050;-77
2023/05/14 02:07:37;;;;;;;38.67;26.98;;;;;;;12.32;100.00;101825.41;4970182;28;20676;-76
2023/05/14 02:10:03;;;;;;;39.45;27.13;;;;;;;12.29;100.00;101814.88;4964853;28;20035;-77
2023/05/14 02:12:32;;;;;;;41.83;26.30;;;;;;;12.35;100.00;101812.75;4983037;28;20110;-76
2023/05/14 02:14:58;;;;;;;36.47;26.95;;;;;;;12.07;100.00;101810.72;4977928;28;20363;-76
2023/05/14 02:17:25;;;;;;;38.05;26.38;;;;;;;12.04;100.00;101818.88;4965663;28;20563;-76
2023/05/14 02:19:50;;;;;;;44.45;28.88;;;;;;;11.87;100.00;101813.59;4964371;28;20586;-76
2023/05/14 02:22:16;;;;;;;46.35;28.70;;;;;;;12.03;100.00;101819.84;4960778;28;20038;-76
2023/05/14 02:24:45;;;;;;;42.90;29.13;;;;;;;12.08;100.00;101807.09;4986024;28;20106;-76
2023/05/14 02:27:12;;;;;;;39.22;27.30;;;;;;;12.17;100.00;101803.91;4964759;28;21079;-77
2023/05/14 02:29:38;;;;;;;36.55;27.90;;;;;;;12.26;100.00;101802.56;4986771;28;20038;-76
2023/05/14 02:32:07;;;;;;;42.95;27.33;;;;;;;12.17;100.00;101803.91;4972302;28;20098;-77
2023/05/14 02:34:33;;;;;;;40.65;28.67;;;;;;;12.10;100.00;101797.19;4979106;28;20039;-76
2023/05/14 02:36:59;;;;;;;45.85;29.25;;;;;;;11.84;100.00;101803.91;4960439;28;20074;-77
2023/05/14 02:39:24;;;;;;;39.22;28.13;;;;;;;12.00;100.00;101801.31;4969637;28;20062;-77
2023/05/14 02:41:50;;;;;;;48.08;28.95;;;;;;;11.78;100.00;101798.88;4979805;28;20042;-77
2023/05/14 02:44:19;;;;;;;45.95;29.55;;;;;;;11.78;100.00;101798.00;4969565;28;20081;-76
2023/05/14 02:46:44;;;;;;;40.70;27.85;;;;;;;11.86;100.00;101803.84;4969642;28;20039;-76
2023/05/14 02:49:10;;;;;;;51.03;28.15;;;;;;;11.88;100.00;101796.59;4967279;28;20054;-77
2023/05/14 02:51:36;;;;;;;42.72;29.20;;;;;;;11.78;100.00;101809.56;4962298;28;20714;-76
2023/05/14 02:54:02;;;;;;;39.35;28.70;;;;;;;11.73;100.00;101806.25;4972294;28;21085;-76
2023/05/14 02:56:28;;;;;;;47.13;30.20;;;;;;;11.73;100.00;101805.41;4982329;28;20031;-76
2023/05/14 02:58:54;;;;;;;38.92;29.13;;;;;;;11.67;100.00;101803.91;4968060;28;20026;-76
2023/05/14 03:01:19;;;;;;;44.13;28.60;;;;;;;11.74;100.00;101807.97;4956439;28;20834;-76
2023/05/14 03:03:45;;;;;;;48.85;30.55;;;;;;;11.69;100.00;101799.34;4965456;28;20035;-76
2023/05/14 03:06:10;;;;;;;49.00;30.52;;;;;;;11.63;100.00;101803.22;4970197;28;20038;-77
2023/05/14 03:08:36;;;;;;;48.33;31.27;;;;;;;11.59;100.00;101801.63;4964210;28;20082;-77
2023/05/14 03:11:08;;;;;;;48.83;30.38;;;;;;;11.53;100.00;101799.28;4966234;28;20063;-76
2023/05/14 03:13:36;;;;;;;53.47;31.75;;;;;;;11.38;100.00;101798.28;4958656;28;20164;-77
2023/05/14 03:16:01;;;;;;;43.15;30.70;;;;;;;11.47;100.00;101793.41;4959758;28;20039;-76
2023/05/14 03:18:29;;;;;;;51.65;31.33;;;;;;;11.35;100.00;101802.94;4970290;28;20043;-76
2023/05/14 03:20:55;;;;;;;46.22;30.48;;;;;;;11.41;100.00;101806.13;4984431;28;20054;-77
2023/05/14 03:23:21;;;;;;;53.63;31.23;;;;;;;11.29;100.00;101792.53;4972304;28;20030;-77
2023/05/14 03:25:47;;;;;;;52.08;34.15;;;;;;;11.25;100.00;101794.53;4943546;28;20035;-76
2023/05/14 03:28:13;;;;;;;51.03;32.25;;;;;;;11.29;100.00;101790.72;4961097;28;20039;-76
2023/05/14 03:30:39;;;;;;;59.08;32.92;;;;;;;11.40;100.00;101787.53;4966644;28;20823;-76
2023/05/14 03:33:12;;;;;;;49.00;32.38;;;;;;;11.35;100.00;101793.09;4978871;28;20030;-76
2023/05/14 03:35:38;;;;;;;49.92;31.20;;;;;;;11.55;100.00;101785.88;4975327;28;20039;-76
2023/05/14 03:38:03;;;;;;;50.72;33.08;;;;;;;11.31;100.00;101777.31;4972601;28;20088;-76
2023/05/14 03:40:32;;;;;;;56.33;32.95;;;;;;;11.25;100.00;101788.31;4971936;28;20082;-76
2023/05/14 03:42:58;;;;;;;59.88;32.53;;;;;;;11.04;100.00;101785.75;4971097;28;20354;-76
2023/05/14 03:45:25;;;;;;;51.70;33.55;;;;;;;10.99;100.00;101778.94;4981337;28;20564;-76
2023/05/14 03:47:51;;;;;;;56.90;33.40;;;;;;;11.02;100.00;101776.13;4967123;28;20051;-76
2023/05/14 03:50:20;;;;;;;54.83;33.35;;;;;;;11.10;100.00;101774.81;4954974;28;20043;-76
2023/05/14 03:52:46;;;;;;;56.45;33.22;;;;;;;11.12;100.00;101772.03;4957946;28;20067;-76
2023/05/14 03:55:11;;;;;;;55.92;34.67;;;;;;;11.09;100.00;101775.75;4963237;28;20650;-76
2023/05/14 03:57:37;;;;;;;54.25;33.72;;;;;;;11.01;100.00;101777.06;4960425;28;20086;-75
2023/05/14 04:00:08;;;;;;;54.97;33.20;;;;;;;11.20;100.00;101771.66;4969501;28;21070;-75
2023/05/14 04:02:46;;;;;;;54.95;33.45;;;;;;;11.39;100.00;101777.78;4962386;28;20042;-75
2023/05/14 04:05:11;;;;;;;58.25;34.22;;;;;;;11.39;100.00;101769.75;4965897;28;20035;-75
2023/05/14 04:07:37;;;;;;;53.80;31.30;;;;;;;11.36;100.00;101775.28;4964438;28;20039;-75
2023/05/14 04:10:03;;;;;;;56.17;33.30;;;;;;;11.35;100.00;101777.09;4956571;28;20100;-75
2023/05/14 04:12:30;;;;;;;53.80;33.50;;;;;;;11.36;100.00;101778.81;4962003;28;20153;-75
2023/05/14 04:14:57;;;;;;;52.22;34.65;;;;;;;11.47;100.00;101780.91;4960441;28;20047;-76
2023/05/14 04:17:22;;;;;;;53.88;31.85;;;;;;;11.77;100.00;101778.44;4978839;28;20030;-76
2023/05/14 04:19:48;;;;;;;55.17;32.15;;;;;;;11.94;100.00;101780.22;4965259;28;20044;-75
2023/05/14 04:22:13;;;;;;;47.35;29.38;;;;;;;12.13;100.00;101772.06;4960126;28;20890;-75
2023/05/14 04:24:39;;;;;;;40.42;29.00;;;;;;;12.31;100.00;101772.88;4968821;28;20622;-76
2023/05/14 04:27:18;;;;;;;49.00;29.83;;;;;;;12.31;100.00;101783.59;4963483;28;20031;-75
2023/05/14 04:29:43;;;;;;;49.25;30.67;;;;;;;12.70;100.00;101772.41;4963664;28;20051;-75
2023/05/14 04:32:11;;;;;;;43.35;30.20;;;;;;;12.52;100.00;101778.84;4962593;28;20045;-75
2023/05/14 04:34:38;;;;;;;46.72;29.75;;;;;;;12.39;100.00;101773.28;4968747;28;20043;-75
2023/05/14 04:37:07;;;;;;;45.63;29.77;;;;;;;12.60;100.00;101774.78;4969183;28;20031;-75
2023/05/14 04:39:33;;;;;;;40.50;28.20;;;;;;;12.84;100.00;101767.13;4969946;28;20050;-76
2023/05/14 04:41:58;;;;;;;46.67;28.17;;;;;;;12.53;100.00;101772.53;4963923;28;20111;-76
2023/05/14 04:44:25;;;;;;;43.53;28.52;;;;;;;12.19;100.00;101774.41;4955559;28;20036;-75
2023/05/14 04:46:51;;;;;;;43.85;29.83;;;;;;;12.57;100.00;101776.75;4955492;28;20123;-75
2023/05/14 04:49:16;;;;;;;47.05;28.77;;;;;;;12.12;100.00;101770.34;4966131;28;20037;-76
2023/05/14 04:51:43;;;;;;;45.05;29.15;;;;;;;12.22;100.00;101778.75;4968412;28;20045;-74
2023/05/14 04:54:09;;;;;;;41.05;29.23;;;;;;;12.30;100.00;101771.13;4956599;28;20054;-75
2023/05/14 04:56:35;;;;;;;43.72;30.40;;;;;;;12.52;100.00;101773.50;4961401;28;20035;-75
2023/05/14 04:59:00;;;;;;;45.15;28.23;;;;;;;12.62;100.00;101767.53;4965857;28;20150;-75
2023/05/14 05:01:26;;;;;;;44.67;27.77;;;;;;;12.23;100.00;101780.47;4975007;28;20039;-75
2023/05/14 05:03:51;;;;;;;41.50;27.33;;;;;;;12.79;100.00;101765.69;4978453;28;20034;-75
2023/05/14 05:06:18;;;;;;;41.97;27.92;;;;;;;12.61;100.00;101776.50;4965449;28;20043;-75
2023/05/14 05:08:43;;;;;;;47.47;27.70;;;;;;;12.49;100.00;101768.28;4973493;28;20045;-75
2023/05/14 05:11:09;;;;;;;43.65;27.60;;;;;;;12.60;100.00;101772.09;4965508;28;20819;-76
2023/05/14 05:13:37;;;;;;;44.55;28.77;;;;;;;12.79;100.00;101771.03;4965831;28;20387;-74
2023/05/14 05:16:03;;;;;;;42.22;26.40;;;;;;;13.69;100.00;101774.56;4964467;28;20058;-75
2023/05/14 05:18:33;;;;;;;40.50;26.77;;;;;;;13.37;100.00;101771.19;4964752;28;20034;-76
2023/05/14 05:20:59;;;;;;;38.78;25.77;;;;;;;14.12;100.00;101766.53;4961172;28;20035;-76
2023/05/14 05:23:25;;;;;;;36.22;22.92;;;;;;;15.73;100.00;101755.81;4955669;28;20042;-75
2023/05/14 05:25:50;;;;;;;36.60;23.85;;;;;;;15.67;100.00;101761.66;4965094;28;20043;-77
2023/05/14 05:28:16;;;;;;;33.85;23.80;;;;;;;15.44;100.00;101766.75;4962054;28;20046;-76
2023/05/14 05:30:44;;;;;;;36.50;24.42;;;;;;;15.57;100.00;101761.41;4961574;28;20031;-76
2023/05/14 05:33:11;;;;;;;35.13;23.70;;;;;;;15.92;100.00;101758.09;4961629;28;20035;-75
2023/05/14 05:35:36;;;;;;;30.35;22.42;;;;;;;16.23;100.00;101762.97;4971108;28;20105;-76
2023/05/14 05:38:08;;;;;;;32.63;21.90;;;;;;;16.85;100.00;101756.63;4969790;28;20043;-76
2023/05/14 05:40:33;;;;;;;31.23;21.40;;;;;;;16.56;100.00;101764.16;4976982;28;20063;-76
2023/05/14 05:43:00;;;;;;;25.17;20.17;;;;;;;16.85;100.00;101758.47;4964508;28;20035;-76
2023/05/14 05:45:26;;;;;;;33.38;20.73;;;;;;;17.88;99.25;101756.81;4962414;28;20271;-77
2023/05/14 05:47:51;;;;;;;27.20;20.15;;;;;;;17.47;98.58;101756.38;4977042;28;20147;-77
2023/05/14 05:50:20;;;;;;;30.60;20.38;;;;;;;16.91;100.00;101758.00;4969919;28;20054;-75
2023/05/14 05:52:46;;;;;;;30.95;21.15;;;;;;;16.47;100.00;101760.34;4967474;28;20888;-76
2023/05/14 05:55:20;;;;;;;30.65;20.95;;;;;;;16.84;100.00;101757.63;4969690;28;20516;-77
2023/05/14 05:57:46;;;;;;;30.20;20.00;;;;;;;15.66;100.00;101765.28;4980348;28;20058;-77
2023/05/14 06:00:12;;;;;;;27.73;20.60;;;;;;;15.14;100.00;101769.69;4981027;28;20422;-77
2023/05/14 06:02:42;;;;;;;26.88;20.77;;;;;;;15.07;100.00;101765.72;4966989;28;20047;-74
2023/05/14 06:05:09;;;;;;;29.33;20.92;;;;;;;16.04;100.00;101767.97;4991499;28;21216;-76
2023/05/14 06:07:38;;;;;;;32.83;20.85;;;;;;;15.37;100.00;101765.47;4969768;28;20127;-77
2023/05/14 06:10:07;;;;;;;33.92;19.85;;;;;;;15.83;100.00;101769.50;4969583;28;20090;-76
2023/05/14 06:12:33;;;;;;;30.38;20.30;;;;;;;15.80;100.00;101766.03;4969245;28;20068;-77
2023/05/14 06:14:59;;;;;;;26.13;19.73;;;;;;;16.32;100.00;101772.22;4980349;28;20038;-77
2023/05/14 06:17:24;;;;;;;25.63;20.90;;;;;;;16.21;100.00;101766.72;4969027;28;20036;-76
2023/05/14 06:19:50;;;;;;;26.35;20.15;;;;;;;16.53;100.00;101765.25;4966850;28;20057;-76
2023/05/14 06:22:16;;;;;;;31.67;19.88;;;;;;;16.82;100.00;101771.22;4967108;28;20097;-75
2023/05/14 06:24:42;;;;;;;28.38;20.20;;;;;;;16.71;100.00;101772.94;4984560;28;20035;-76
2023/05/14 06:27:10;;;;;;;25.60;19.90;;;;;;;16.24;100.00;101772.75;4977812;28;20581;-76
2023/05/14 06:29:35;;;;;;;33.88;19.90;;;;;;;16.38;100.00;101782.53;4957831;28;20027;-76
2023/05/14 06:32:03;;;;;;;29.13;19.48;;;;;;;16.53;100.00;101776.03;4971300;28;20465;-76
2023/05/14 06:34:29;;;;;;;24.25;19.33;;;;;;;16.70;100.00;101774.78;4971199;28;20738;-77
2023/05/14 06:36:56;;;;;;;29.67;20.67;;;;;;;17.23;100.00;101774.44;4965726;28;20038;-77
2023/05/14 06:39:22;;;;;;;28.17;19.25;;;;;;;17.92;100.00;101772.63;4970044;28;20039;-76
2023/05/14 06:41:47;;;;;;;25.02;19.27;;;;;;;18.18;96.61;101773.25;4968800;28;20043;-76
2023/05/14 06:44:13;;;;;;;27.15;20.50;;;;;;;17.26;100.00;101779.59;4972133;28;20066;-77
2023/05/14 06:46:42;;;;;;;27.85;19.10;;;;;;;16.95;100.00;101771.13;4966576;28;20035;-77
2023/05/14 06:49:07;;;;;;;24.75;19.58;;;;;;;17.97;100.00;101773.16;4966546;28;21534;-77
2023/05/14 06:51:33;;;;;;;24.17;18.92;;;;;;;18.22;97.63;101773.84;4985419;28;20043;-77
2023/05/14 06:54:03;;;;;;;24.98;19.17;;;;;;;18.19;98.17;101760.63;4975896;28;20137;-77
2023/05/14 06:56:28;;;;;;;27.30;20.65;;;;;;;18.20;100.00;101765.88;4976069;28;20039;-76
2023/05/14 06:58:55;;;;;;;24.80;19.17;;;;;;;17.65;100.00;101764.84;4967222;28;20877;-75
2023/05/14 07:01:20;;;;;;;31.30;20.70;;;;;;;18.56;100.00;101756.63;4965435;28;20125;-77
2023/05/14 07:03:46;;;;;;;28.70;19.48;;;;;;;17.53;100.00;101757.72;4978677;28;20085;-76
2023/05/14 07:06:12;;;;;;;29.45;19.63;;;;;;;18.17;100.00;101755.31;4962387;28;20023;-76
2023/05/14 07:08:44;;;;;;;30.83;20.90;;;;;;;18.25;100.00;101757.41;4945335;28;20036;-77
2023/05/14 07:11:10;;;;;;;24.52;19.63;;;;;;;18.43;96.56;101761.31;4969197;28;20078;-77
2023/05/14 07:13:39;;;;;;;26.02;18.52;;;;;;;18.68;94.19;101756.59;4968764;28;20122;-76
2023/05/14 07:16:08;;;;;;;27.10;19.25;;;;;;;18.80;93.79;101752.91;4964273;28;20033;-77
2023/05/14 07:18:35;;;;;;;28.33;19.90;;;;;;;19.14;90.84;101745.50;4963757;28;20027;-77
2023/05/14 07:21:03;;;;;;;27.55;19.80;;;;;;;18.88;91.77;101750.44;4967516;28;20845;-75
2023/05/14 07:23:34;;;;;;;28.90;19.77;;;;;;;18.81;94.40;101750.06;4981936;28;20062;-76
2023/05/14 07:26:00;;;;;;;28.83;19.38;;;;;;;18.59;95.82;101750.97;4972705;28;20043;-76
2023/05/14 07:28:26;;;;;;;28.80;19.33;;;;;;;18.28;94.46;101757.19;4980427;28;20058;-75
2023/05/14 07:30:51;;;;;;;32.25;19.60;;;;;;;18.41;97.62;101748.91;4982894;28;20035;-76
2023/05/14 07:33:18;;;;;;;26.38;19.35;;;;;;;18.02;99.49;101754.75;4965862;28;20035;-76
2023/05/14 07:35:43;;;;;;;28.83;20.20;;;;;;;17.72;98.11;101752.63;4967192;28;20159;-75
2023/05/14 07:38:13;;;;;;;27.08;20.52;;;;;;;18.72;97.47;101745.41;4952086;28;20564;-77
2023/05/14 07:40:39;;;;;;;24.65;18.92;;;;;;;17.82;96.97;101750.94;4963748;28;20047;-77
2023/05/14 07:43:09;;;;;;;26.55;19.48;;;;;;;18.98;92.74;101737.00;4964901;28;20034;-77
2023/05/14 07:45:38;;;;;;;29.25;19.40;;;;;;;19.33;88.65;101742.09;4964951;28;20145;-76
2023/05/14 07:48:03;;;;;;;25.30;19.23;;;;;;;19.15;88.20;101739.97;4963921;28;20153;-76
2023/05/14 07:50:30;;;;;;;28.80;19.23;;;;;;;19.18;92.40;101743.38;4982003;28;20838;-77
2023/05/14 07:52:56;;;;;;;26.63;19.33;;;;;;;18.27;97.52;101752.72;4980972;28;20043;-75
2023/05/14 07:55:22;;;;;;;27.20;18.63;;;;;;;18.73;93.16;101739.06;4966785;28;20047;-76
2023/05/14 07:57:48;;;;;;;28.27;18.65;;;;;;;18.95;87.84;101732.69;4965113;28;20041;-76
2023/05/14 08:00:14;;;;;;;23.73;19.58;;;;;;;18.83;93.70;101742.69;4984273;28;20146;-76
2023/05/14 08:02:41;;;;;;;24.00;17.95;;;;;;;18.52;94.88;101747.03;4963114;28;21067;-76
2023/05/14 08:05:07;;;;;;;27.30;19.13;;;;;;;18.89;95.45;101730.50;4969424;28;20043;-76
2023/05/14 08:07:35;;;;;;;23.77;18.48;;;;;;;18.42;95.55;101732.56;4968005;28;20031;-76
2023/05/14 08:10:01;;;;;;;30.73;19.05;;;;;;;19.40;94.32;101740.56;4983383;28;20129;-76
2023/05/14 08:12:28;;;;;;;26.63;19.65;;;;;;;18.71;96.09;101741.00;4967752;28;20045;-76
2023/05/14 08:14:55;;;;;;;25.88;19.17;;;;;;;19.06;97.84;101734.47;4966664;28;20743;-76
2023/05/14 08:17:21;;;;;;;31.45;21.02;;;;;;;19.75;92.85;101724.00;4944343;28;20039;-76
2023/05/14 08:19:48;;;;;;;25.67;19.13;;;;;;;19.62;95.27;101737.72;4962388;28;20050;-76
2023/05/14 08:22:14;;;;;;;24.35;19.10;;;;;;;19.90;88.45;101735.31;4965521;28;20121;-77
2023/05/14 08:24:42;;;;;;;27.63;18.20;;;;;;;20.07;80.33;101729.25;4965801;28;20110;-77
2023/05/14 08:27:09;;;;;;;24.08;18.17;;;;;;;20.26;79.20;101733.00;4960002;28;20043;-77
2023/05/14 08:29:37;;;;;;;24.33;17.80;;;;;;;20.09;82.44;101738.09;4977998;28;20064;-75
2023/05/14 08:32:06;;;;;;;26.92;18.35;;;;;;;18.94;89.37;101736.38;4970550;28;20066;-76
2023/05/14 08:34:35;;;;;;;25.58;17.98;;;;;;;19.40;86.83;101745.97;4965392;28;20592;-78
2023/05/14 08:37:03;;;;;;;27.63;18.13;;;;;;;19.60;89.49;101747.84;4975759;28;20071;-76
2023/05/14 08:39:36;;;;;;;24.85;17.65;;;;;;;19.76;89.37;101743.78;4980179;28;20500;-76
2023/05/14 08:42:15;;;;;;;24.40;16.98;;;;;;;20.29;79.68;101744.44;4967383;28;20042;-77
2023/05/14 08:44:56;;;;;;;24.15;17.63;;;;;;;19.72;83.90;101745.91;4973622;28;20046;-76
2023/05/14 08:47:22;;;;;;;22.05;17.23;;;;;;;19.70;84.93;101742.47;4973225;28;20494;-76
2023/05/14 08:50:03;;;;;;;27.35;17.90;;;;;;;19.61;84.98;101746.00;4965164;28;20039;-75
2023/05/14 08:52:29;;;;;;;23.70;17.60;;;;;;;20.04;84.92;101734.09;4961349;28;20726;-76
2023/05/14 08:54:57;;;;;;;24.92;18.50;;;;;;;20.02;86.24;101736.06;4965708;28;20113;-76
2023/05/14 08:57:25;;;;;;;24.27;17.85;;;;;;;20.30;89.56;101740.72;4964146;28;20046;-76
2023/05/14 08:59:52;;;;;;;24.00;19.05;;;;;;;19.73;90.68;101742.22;4964433;28;20050;-75
2023/05/14 09:02:21;;;;;;;23.48;17.40;;;;;;;19.79;89.34;101736.28;4963800;28;20045;-77
2023/05/14 09:04:52;;;;;;;24.02;18.05;;;;;;;20.14;83.74;101732.28;4963664;28;20039;-76
2023/05/14 09:07:18;;;;;;;22.85;16.30;;;;;;;20.17;81.78;101729.28;4963895;28;21353;-75
2023/05/14 09:09:44;;;;;;;22.00;16.05;;;;;;;20.56;80.29;101726.69;4965316;28;20046;-76
2023/05/14 09:12:10;;;;;;;28.70;17.48;;;;;;;20.31;80.11;101723.47;4964543;28;20035;-76
2023/05/14 09:14:35;;;;;;;18.02;14.82;;;;;;;20.61;75.31;101717.13;4965773;28;20042;-76
2023/05/14 09:17:02;;;;;;;20.33;15.23;;;;;;;20.30;78.94;101720.91;4960833;28;20043;-75
2023/05/14 09:19:30;;;;;;;20.55;16.70;;;;;;;20.27;79.32;101711.19;4963708;28;20035;-74
2023/05/14 09:22:00;;;;;;;21.77;15.75;;;;;;;20.08;80.44;101721.97;4966562;28;20572;-76
2023/05/14 09:24:30;;;;;;;24.65;16.73;;;;;;;20.51;78.79;101712.72;4962523;28;20047;-75
2023/05/14 09:26:57;;;;;;;20.00;15.77;;;;;;;20.76;80.43;101711.31;4953842;28;20045;-76
2023/05/14 09:29:27;;;;;;;24.75;15.45;;;;;;;20.89;76.30;101701.03;4965274;28;20054;-75
2023/05/14 09:31:54;;;;;;;18.42;15.30;;;;;;;20.68;76.79;101691.19;4964487;28;20034;-76
2023/05/14 09:34:24;;;;;;;18.60;14.10;;;;;;;21.04;73.52;101694.19;4966084;28;20043;-76
2023/05/14 09:36:53;;;;;;;15.52;12.15;;;;;;;21.27;69.17;101693.84;4962780;28;20035;-78
2023/05/14 09:39:18;;;;;;;18.80;12.32;;;;;;;21.80;67.48;101688.72;4967532;28;20031;-76
2023/05/14 09:41:44;;;;;;;16.05;11.73;;;;;;;21.72;67.02;101685.88;4966238;28;20690;-75
2023/05/14 09:44:09;;;;;;;16.70;11.60;;;;;;;22.03;67.79;101691.88;4966944;28;20043;-75
2023/05/14 09:46:36;;;;;;;13.48;11.20;;;;;;;21.58;68.90;101692.63;4966576;28;20094;-75
2023/05/14 09:49:01;;;;;;;15.63;11.27;;;;;;;22.00;67.37;101684.03;4970632;28;20314;-74
2023/05/14 09:51:30;;;;;;;14.93;10.50;;;;;;;21.76;67.77;101687.28;4965214;28;20043;-76
2023/05/14 09:53:56;;;;;;;15.25;10.43;;;;;;;21.98;66.53;101681.47;4969046;28;20130;-75
2023/05/14 09:56:22;;;;;;;15.68;10.52;;;;;;;22.14;65.85;101677.25;4970232;28;20078;-75
2023/05/14 09:58:48;;;;;;;19.27;11.20;;;;;;;22.32;62.32;101669.16;4983459;28;20042;-75
2023/05/14 10:01:18;;;;;;;15.93;10.95;;;;;;;22.29;63.50;101670.31;4970653;28;20030;-75
2023/05/14 10:03:44;;;;;;;13.85;9.93;;;;;;;22.15;68.35;101679.84;4984585;28;20042;-75
2023/05/14 10:06:12;;;;;;;18.77;11.38;;;;;;;21.98;66.04;101678.75;4976094;28;20137;-76
2023/05/14 10:08:42;;;;;;;14.93;10.18;;;;;;;21.78;63.95;101674.41;4959291;28;20094;-76
2023/05/14 10:11:13;;;;;;;17.00;9.98;;;;;;;21.75;63.72;101668.44;4970283;28;20034;-75
2023/05/14 10:13:44;;;;;;;13.95;10.00;;;;;;;21.69;67.58;101664.47;4984393;28;20047;-76
2023/05/14 10:16:17;;;;;;;18.30;12.07;;;;;;;22.20;67.25;101660.38;4971182;28;20031;-76
2023/05/14 10:18:47;;;;;;;17.75;11.60;;;;;;;21.95;62.57;101659.19;4968276;28;20036;-76
2023/05/14 10:21:15;;;;;;;16.58;10.50;;;;;;;22.42;61.32;101656.34;4962813;28;20532;-74
2023/05/14 10:23:42;;;;;;;12.40;10.05;;;;;;;22.65;63.42;101652.16;4966744;28;20047;-75
2023/05/14 10:26:12;;;;;;;13.45;11.52;;;;;;;21.88;65.30;101649.94;4972033;28;20075;-75
2023/05/14 10:28:38;;;;;;;16.70;10.20;;;;;;;22.82;63.71;101650.41;4970172;28;20031;-75
2023/05/14 10:31:04;;;;;;;15.88;9.38;;;;;;;22.74;59.59;101644.91;4967297;28;20223;-76
2023/05/14 10:33:45;;;;;;;11.98;9.75;;;;;;;22.39;62.06;101649.38;4979671;28;20126;-75
2023/05/14 10:36:11;;;;;;;20.15;10.18;;;;;;;21.97;61.53;101649.03;4966197;28;20034;-75
2023/05/14 10:38:37;;;;;;;14.68;10.13;;;;;;;21.65;59.99;101657.63;4967525;28;20666;-74
2023/05/14 10:41:11;;;;;;;9.02;7.20;;;;;;;22.52;57.63;101639.97;4966084;28;20031;-76
2023/05/14 10:43:39;;;;;;;10.27;7.32;;;;;;;22.43;58.76;101644.44;4969451;28;20035;-76
2023/05/14 10:46:06;;;;;;;14.85;7.18;;;;;;;22.37;55.31;101640.50;4962039;28;20141;-76
2023/05/14 10:48:34;;;;;;;13.90;6.95;;;;;;;23.08;52.22;101638.75;4968263;28;20054;-75
2023/05/14 10:51:01;;;;;;;10.57;6.63;;;;;;;23.17;52.44;101627.75;4979661;28;20039;-76
2023/05/14 10:53:38;;;;;;;10.77;7.82;;;;;;;23.11;50.96;101625.69;4964182;28;20043;-76
2023/05/14 10:56:10;;;;;;;10.20;7.78;;;;;;;22.56;52.56;101619.63;4964930;28;20043;-76
2023/05/14 10:58:42;;;;;;;11.07;7.35;;;;;;;23.26;50.82;101624.06;4978735;28;20209;-76
2023/05/14 11:01:10;;;;;;;10.90;7.63;;;;;;;23.22;53.77;101625.41;4981923;28;20038;-76
2023/05/14 11:03:45;;;;;;;9.35;7.82;;;;;;;22.83;57.11;101624.94;4963094;28;20130;-75
2023/05/14 11:06:13;;;;;;;8.85;7.13;;;;;;;23.37;51.68;101620.22;4972338;28;20145;-75